Time;durP1;ratioP1;P1;durP2;ratioP2;P2;SDS_P1;SDS_P2;PMS_P1;PMS_P2;Temp;Humidity;BMP_temperature;BMP_pressure;BME280_temperature;BME280_humidity;BME280_pressure;Samples;Min_cycle;Max_cycle;Signal;HPM_P1;HPM_P2
2021/07/26 00:01:40;;;;;;;8.20;1.65;;;;;;;;;;5040129;28;20029;-68
2021/07/26 00:04:07;;;;;;;5.25;1.90;;;;;;;;;;5045905;28;20021;-68
2021/07/26 00:06:33;;;;;;;6.95;1.75;;;;;;;;;;5049999;28;20068;-68
2021/07/26 00:09:01;;;;;;;5.20;1.83;;;;;;;;;;5051984;28;20025;-67
2021/07/26 00:11:27;;;;;;;7.07;1.87;;;;;;;;;;5041701;28;20041;-67
2021/07/26 00:13:54;;;;;;;5.35;1.70;;;;;;;;;;5032232;28;20082;-67
2021/07/26 00:16:21;;;;;;;5.40;1.80;;;;;;;;;;5027279;28;20037;-67
2021/07/26 00:18:48;;;;;;;5.03;1.73;;;;;;;;;;5009623;28;20079;-67
2021/07/26 00:21:14;;;;;;;5.60;2.00;;;;;;;;;;5016177;28;20639;-67
2021/07/26 00:23:41;;;;;;;8.13;2.07;;;;;;;;;;5027259;28;20080;-67
2021/07/26 00:26:08;;;;;;;10.10;2.80;;;;;;;;;;5027456;28;20037;-67
2021/07/26 00:28:35;;;;;;;6.43;2.13;;;;;;;;;;5029361;28;20025;-67
2021/07/26 00:31:02;;;;;;;6.53;2.37;;;;;;;;;;5037653;28;20033;-67
2021/07/26 00:34:07;;;;;;;7.50;1.77;;;;;;;;;;5051758;28;20111;-67
2021/07/26 00:36:40;;;;;;;7.47;2.10;;;;;;;;;;4994631;28;20045;-67
2021/07/26 00:39:07;;;;;;;10.50;2.23;;;;;;;;;;5041249;28;20415;-67
2021/07/26 00:41:34;;;;;;;6.63;2.00;;;;;;;;;;5028505;28;20025;-67
2021/07/26 00:44:01;;;;;;;6.50;2.13;;;;;;;;;;5027180;28;20033;-67
2021/07/26 00:46:28;;;;;;;6.00;1.97;;;;;;;;;;5027111;28;20033;-67
2021/07/26 00:48:55;;;;;;;6.63;2.53;;;;;;;;;;5034137;28;20491;-67
2021/07/26 00:51:22;;;;;;;6.70;2.50;;;;;;;;;;5049745;28;20100;-66
2021/07/26 00:53:49;;;;;;;6.50;2.07;;;;;;;;;;5045860;28;20013;-67
2021/07/26 00:56:16;;;;;;;8.60;2.63;;;;;;;;;;5048439;28;20021;-65
2021/07/26 00:58:43;;;;;;;7.60;2.40;;;;;;;;;;5051899;28;20028;-64
2021/07/26 01:01:13;;;;;;;12.50;2.00;;;;;;;;;;5051859;28;20024;-64
2021/07/26 01:03:42;;;;;;;6.97;2.10;;;;;;;;;;5048440;28;20379;-64
2021/07/26 01:06:09;;;;;;;7.27;1.93;;;;;;;;;;5040341;28;20034;-64
2021/07/26 01:08:36;;;;;;;6.47;2.03;;;;;;;;;;5032476;28;20025;-65
2021/07/26 01:11:04;;;;;;;7.37;2.67;;;;;;;;;;5050687;28;20040;-64
2021/07/26 01:13:31;;;;;;;10.83;2.47;;;;;;;;;;5052630;28;20028;-64
2021/07/26 01:15:58;;;;;;;10.20;2.50;;;;;;;;;;5052940;28;20023;-64
2021/07/26 01:18:31;;;;;;;9.53;2.60;;;;;;;;;;5038583;28;20033;-64
2021/07/26 01:20:59;;;;;;;8.47;2.03;;;;;;;;;;5055500;28;20131;-65
2021/07/26 01:23:26;;;;;;;5.23;2.17;;;;;;;;;;5053687;28;20415;-65
2021/07/26 01:25:53;;;;;;;8.03;2.67;;;;;;;;;;5018216;28;20034;-64
2021/07/26 01:28:21;;;;;;;11.23;2.17;;;;;;;;;;5033492;28;20049;-64
2021/07/26 01:30:48;;;;;;;12.73;2.73;;;;;;;;;;5030384;28;20037;-64
2021/07/26 01:33:16;;;;;;;9.17;2.20;;;;;;;;;;5046623;28;20383;-64
2021/07/26 01:35:43;;;;;;;10.63;2.37;;;;;;;;;;5052008;28;20021;-63
2021/07/26 01:38:10;;;;;;;6.40;2.57;;;;;;;;;;5054467;28;20021;-64
2021/07/26 01:40:39;;;;;;;7.80;2.60;;;;;;;;;;5053900;28;20480;-63
2021/07/26 01:43:07;;;;;;;10.20;2.13;;;;;;;;;;5055149;28;20032;-64
2021/07/26 01:45:34;;;;;;;6.73;1.90;;;;;;;;;;5054129;28;20095;-63
2021/07/26 01:48:21;;;;;;;7.10;2.10;;;;;;;;;;5052960;28;20037;-64
2021/07/26 01:50:51;;;;;;;11.33;2.03;;;;;;;;;;5012894;28;20069;-63
2021/07/26 01:53:18;;;;;;;7.73;2.23;;;;;;;;;;5049633;28;20074;-63
2021/07/26 01:55:45;;;;;;;5.40;1.80;;;;;;;;;;5049730;28;20444;-64
2021/07/26 01:58:12;;;;;;;11.63;2.57;;;;;;;;;;5032369;28;20026;-64
2021/07/26 02:00:39;;;;;;;4.93;2.20;;;;;;;;;;5038783;28;20025;-63
2021/07/26 02:03:06;;;;;;;6.20;2.03;;;;;;;;;;5054609;28;20029;-63
2021/07/26 02:05:33;;;;;;;7.27;2.37;;;;;;;;;;5032572;28;20441;-63
2021/07/26 02:07:59;;;;;;;13.23;2.73;;;;;;;;;;5042358;28;20483;-63
2021/07/26 02:10:26;;;;;;;15.87;2.83;;;;;;;;;;5052426;28;20036;-63
2021/07/26 02:12:53;;;;;;;9.87;2.47;;;;;;;;;;5049296;28;20017;-64
2021/07/26 02:15:20;;;;;;;17.00;2.30;;;;;;;;;;5049101;28;20071;-63
2021/07/26 02:17:46;;;;;;;6.93;2.40;;;;;;;;;;5038700;28;20119;-63
2021/07/26 02:20:13;;;;;;;7.50;2.07;;;;;;;;;;5050090;28;20102;-63
2021/07/26 02:22:40;;;;;;;6.67;2.13;;;;;;;;;;5052025;28;20060;-63
2021/07/26 02:25:07;;;;;;;10.53;2.47;;;;;;;;;;5053852;28;20036;-63
2021/07/26 02:27:34;;;;;;;5.70;1.90;;;;;;;;;;5049576;28;20018;-63
2021/07/26 02:30:01;;;;;;;6.67;2.07;;;;;;;;;;5034434;28;20055;-64
2021/07/26 02:32:27;;;;;;;8.13;1.73;;;;;;;;;;5033342;28;20100;-64
2021/07/26 02:34:54;;;;;;;7.43;2.20;;;;;;;;;;5029365;28;20102;-66
2021/07/26 02:37:21;;;;;;;4.67;2.03;;;;;;;;;;5031355;28;20426;-66
2021/07/26 02:39:48;;;;;;;7.87;1.90;;;;;;;;;;5049196;28;20031;-66
2021/07/26 02:42:14;;;;;;;9.43;2.07;;;;;;;;;;5049205;28;20025;-66
2021/07/26 02:44:41;;;;;;;9.13;2.43;;;;;;;;;;5050914;28;20122;-64
2021/07/26 02:47:08;;;;;;;9.23;2.17;;;;;;;;;;5053071;28;20031;-64
2021/07/26 02:49:35;;;;;;;6.43;2.40;;;;;;;;;;5033657;28;20104;-64
2021/07/26 02:52:01;;;;;;;5.43;2.13;;;;;;;;;;5033865;28;20029;-64
2021/07/26 02:54:28;;;;;;;11.07;2.33;;;;;;;;;;5033904;28;20124;-63
2021/07/26 02:56:55;;;;;;;6.90;2.50;;;;;;;;;;5042189;28;20029;-63
2021/07/26 02:59:22;;;;;;;7.30;2.37;;;;;;;;;;5039743;28;20514;-64
2021/07/26 03:01:51;;;;;;;5.67;1.70;;;;;;;;;;5046633;28;20032;-63
2021/07/26 03:04:18;;;;;;;7.77;1.83;;;;;;;;;;5048545;28;20040;-63
2021/07/26 03:06:45;;;;;;;12.87;3.47;;;;;;;;;;5038238;28;20029;-64
2021/07/26 03:09:12;;;;;;;9.97;1.97;;;;;;;;;;5033797;28;20053;-64
2021/07/26 03:11:39;;;;;;;8.77;2.10;;;;;;;;;;5033324;28;20033;-63
2021/07/26 03:14:05;;;;;;;9.07;2.30;;;;;;;;;;5039627;28;20032;-63
2021/07/26 03:16:32;;;;;;;6.97;2.83;;;;;;;;;;5046409;28;20506;-63
2021/07/26 03:18:59;;;;;;;17.93;3.40;;;;;;;;;;5028575;28;20029;-63
2021/07/26 03:21:26;;;;;;;12.27;3.60;;;;;;;;;;5048418;28;20371;-63
2021/07/26 03:23:52;;;;;;;9.47;3.37;;;;;;;;;;5047730;28;20484;-64
2021/07/26 03:26:20;;;;;;;8.53;3.00;;;;;;;;;;5048229;28;20040;-63
2021/07/26 03:28:46;;;;;;;9.23;3.33;;;;;;;;;;5050165;28;20137;-63
2021/07/26 03:31:13;;;;;;;8.73;2.30;;;;;;;;;;5053089;28;20029;-63
2021/07/26 03:33:40;;;;;;;4.87;2.10;;;;;;;;;;5040935;28;20025;-63
2021/07/26 03:36:07;;;;;;;7.47;2.63;;;;;;;;;;5033084;28;20037;-63
2021/07/26 03:38:33;;;;;;;8.67;2.53;;;;;;;;;;5049814;28;20110;-63
2021/07/26 03:41:00;;;;;;;8.73;2.97;;;;;;;;;;5028187;28;20036;-62
2021/07/26 03:43:29;;;;;;;6.90;2.40;;;;;;;;;;5028471;28;20130;-63
2021/07/26 03:45:58;;;;;;;7.67;2.80;;;;;;;;;;5027423;28;20131;-63
2021/07/26 03:48:27;;;;;;;5.87;2.70;;;;;;;;;;5027953;28;20075;-62
2021/07/26 03:50:57;;;;;;;11.57;4.10;;;;;;;;;;5031496;28;20025;-63
2021/07/26 03:53:26;;;;;;;9.77;2.93;;;;;;;;;;5033488;28;20025;-62
2021/07/26 03:55:57;;;;;;;20.20;3.03;;;;;;;;;;5024502;28;20168;-62
2021/07/26 03:58:27;;;;;;;4.57;1.77;;;;;;;;;;5032416;28;20033;-63
2021/07/26 04:00:56;;;;;;;5.70;2.37;;;;;;;;;;5037409;28;20052;-62
2021/07/26 04:03:31;;;;;;;13.43;3.30;;;;;;;;;;5027970;28;20021;-61
2021/07/26 04:08:35;;;;;;;6.33;2.60;;;;;;;;;;5023976;28;19917;-61
2021/07/26 04:11:10;;;;;;;5.53;2.70;;;;;;;;;;5027539;28;20037;-65
2021/07/26 04:13:40;;;;;;;4.70;2.40;;;;;;;;;;5032586;28;20063;-63
2021/07/26 04:16:07;;;;;;;5.17;2.10;;;;;;;;;;5037386;28;20025;-63
2021/07/26 04:18:34;;;;;;;11.97;2.70;;;;;;;;;;5030716;28;20022;-63
2021/07/26 04:21:08;;;;;;;7.33;2.50;;;;;;;;;;5030554;28;20496;-63
2021/07/26 04:23:35;;;;;;;8.25;2.17;;;;;;;;;;5031271;28;20076;-63
2021/07/26 04:26:02;;;;;;;4.67;2.20;;;;;;;;;;5046447;28;20048;-63
2021/07/26 04:28:29;;;;;;;4.50;2.17;;;;;;;;;;5046289;28;20025;-63
2021/07/26 04:30:55;;;;;;;6.90;2.70;;;;;;;;;;5042455;28;20044;-63
2021/07/26 04:33:22;;;;;;;11.73;3.30;;;;;;;;;;5027080;28;20092;-63
2021/07/26 04:35:49;;;;;;;9.57;2.37;;;;;;;;;;5049831;28;20036;-64
2021/07/26 04:38:16;;;;;;;6.73;2.83;;;;;;;;;;5051994;28;20017;-63
2021/07/26 04:40:43;;;;;;;7.20;2.63;;;;;;;;;;5051862;28;20023;-63
2021/07/26 04:43:10;;;;;;;5.10;2.53;;;;;;;;;;5050237;28;20027;-63
2021/07/26 04:45:36;;;;;;;6.93;2.47;;;;;;;;;;5052878;28;20040;-63
2021/07/26 04:48:03;;;;;;;6.60;2.40;;;;;;;;;;5037993;28;20393;-63
2021/07/26 04:50:30;;;;;;;13.93;3.03;;;;;;;;;;5031429;28;20029;-63
2021/07/26 04:52:57;;;;;;;10.10;2.63;;;;;;;;;;5036611;28;20032;-63
2021/07/26 04:55:24;;;;;;;4.63;2.40;;;;;;;;;;5035769;28;20052;-63
2021/07/26 04:57:52;;;;;;;8.40;3.17;;;;;;;;;;5034257;28;20021;-63
2021/07/26 05:00:18;;;;;;;10.50;3.20;;;;;;;;;;5036221;28;20124;-63
2021/07/26 05:02:45;;;;;;;11.33;3.07;;;;;;;;;;5040182;28;20353;-63
2021/07/26 05:05:12;;;;;;;5.70;2.93;;;;;;;;;;5042507;28;20481;-63
2021/07/26 05:07:39;;;;;;;13.13;3.20;;;;;;;;;;5035797;28;20033;-63
2021/07/26 05:10:06;;;;;;;6.60;2.60;;;;;;;;;;5032082;28;20049;-63
2021/07/26 05:12:32;;;;;;;6.20;2.70;;;;;;;;;;5032781;28;20063;-63
2021/07/26 05:14:59;;;;;;;7.10;2.37;;;;;;;;;;5038730;28;20038;-63
2021/07/26 05:17:29;;;;;;;9.90;2.73;;;;;;;;;;5031856;28;20172;-63
2021/07/26 05:19:56;;;;;;;6.00;2.47;;;;;;;;;;5053468;28;20059;-63
2021/07/26 05:22:22;;;;;;;5.20;2.20;;;;;;;;;;5055368;28;20025;-63
2021/07/26 05:24:53;;;;;;;6.87;2.50;;;;;;;;;;5045647;28;20044;-63
2021/07/26 05:27:20;;;;;;;4.40;2.20;;;;;;;;;;5035527;28;20511;-63
2021/07/26 05:29:48;;;;;;;6.97;2.57;;;;;;;;;;5034966;28;20126;-63
2021/07/26 05:32:14;;;;;;;6.57;2.63;;;;;;;;;;5032269;28;20026;-63
2021/07/26 05:34:42;;;;;;;9.00;2.50;;;;;;;;;;5038085;28;20029;-63
2021/07/26 05:37:09;;;;;;;6.10;2.70;;;;;;;;;;5050164;28;20025;-63
2021/07/26 05:39:36;;;;;;;6.40;2.43;;;;;;;;;;5030303;28;20380;-63
2021/07/26 05:42:02;;;;;;;7.07;3.17;;;;;;;;;;5032643;28;20500;-63
2021/07/26 05:44:29;;;;;;;7.40;2.60;;;;;;;;;;5041058;28;20029;-63
2021/07/26 05:46:56;;;;;;;5.77;2.37;;;;;;;;;;5054216;28;20038;-64
2021/07/26 05:49:23;;;;;;;8.63;3.10;;;;;;;;;;5045375;28;20044;-63
2021/07/26 05:51:50;;;;;;;7.93;2.87;;;;;;;;;;5035178;28;20028;-63
2021/07/26 05:54:17;;;;;;;5.70;2.30;;;;;;;;;;5036629;28;20033;-62
2021/07/26 05:56:46;;;;;;;6.70;2.43;;;;;;;;;;5049643;28;20033;-63
2021/07/26 05:59:12;;;;;;;7.73;3.07;;;;;;;;;;5049756;28;20498;-63
2021/07/26 06:01:48;;;;;;;5.60;3.00;;;;;;;;;;5029949;28;20372;-63
2021/07/26 06:04:19;;;;;;;6.33;2.50;;;;;;;;;;5031328;28;20763;-63
2021/07/26 06:06:47;;;;;;;6.53;2.70;;;;;;;;;;5034809;28;20037;-63
2021/07/26 06:09:13;;;;;;;7.30;2.63;;;;;;;;;;5047639;28;20125;-63
2021/07/26 06:11:41;;;;;;;5.57;2.63;;;;;;;;;;5036107;28;20026;-63
2021/07/26 06:14:08;;;;;;;9.10;2.17;;;;;;;;;;5034623;28;20472;-63
2021/07/26 06:16:40;;;;;;;7.43;2.10;;;;;;;;;;5031840;28;20029;-63
2021/07/26 06:19:10;;;;;;;6.80;2.43;;;;;;;;;;5029372;28;20149;-62
2021/07/26 06:21:56;;;;;;;3.23;1.80;;;;;;;;;;5046783;28;20514;-62
2021/07/26 06:24:23;;;;;;;10.80;2.50;;;;;;;;;;5049399;28;20040;-63
2021/07/26 06:26:52;;;;;;;4.33;2.13;;;;;;;;;;5051650;28;20033;-62
2021/07/26 06:29:19;;;;;;;5.80;2.30;;;;;;;;;;5054044;28;20108;-63
2021/07/26 06:31:46;;;;;;;8.77;2.17;;;;;;;;;;5035369;28;20039;-63
2021/07/26 06:34:13;;;;;;;4.93;1.90;;;;;;;;;;5034142;28;20032;-62
2021/07/26 06:36:40;;;;;;;8.00;2.00;;;;;;;;;;5043793;28;20032;-62
2021/07/26 06:39:08;;;;;;;4.37;1.80;;;;;;;;;;5051113;28;20025;-62
2021/07/26 06:41:35;;;;;;;10.00;2.67;;;;;;;;;;5035005;28;20483;-62
2021/07/26 06:44:01;;;;;;;7.47;2.40;;;;;;;;;;5049031;28;20029;-62
2021/07/26 06:46:28;;;;;;;5.83;2.67;;;;;;;;;;5047688;28;20458;-62
2021/07/26 06:48:55;;;;;;;6.87;2.10;;;;;;;;;;5051200;28;20032;-62
2021/07/26 06:51:22;;;;;;;9.07;2.10;;;;;;;;;;5045730;28;20037;-62
2021/07/26 06:53:49;;;;;;;5.60;2.03;;;;;;;;;;5053939;28;20024;-62
2021/07/26 06:56:16;;;;;;;10.23;2.40;;;;;;;;;;5053778;28;20025;-62
2021/07/26 06:58:43;;;;;;;6.17;2.40;;;;;;;;;;5041167;28;20040;-62
2021/07/26 07:01:11;;;;;;;7.10;3.80;;;;;;;;;;5044069;28;20033;-62
2021/07/26 07:03:39;;;;;;;8.13;2.13;;;;;;;;;;5048317;28;20140;-62
2021/07/26 07:06:08;;;;;;;6.53;2.80;;;;;;;;;;5048308;28;20036;-62
2021/07/26 07:08:35;;;;;;;4.80;1.97;;;;;;;;;;5047237;28;20032;-62
2021/07/26 07:11:15;;;;;;;4.40;2.10;;;;;;;;;;5038215;28;20033;-62
2021/07/26 07:13:43;;;;;;;6.60;2.23;;;;;;;;;;5045025;28;20053;-62
2021/07/26 07:16:11;;;;;;;5.73;2.30;;;;;;;;;;5052886;28;20509;-62
2021/07/26 07:18:38;;;;;;;11.30;2.07;;;;;;;;;;5053501;28;20044;-62
2021/07/26 07:21:05;;;;;;;3.70;2.03;;;;;;;;;;5041408;28;20030;-62
2021/07/26 07:23:32;;;;;;;7.20;3.00;;;;;;;;;;5030727;28;20017;-62
2021/07/26 07:26:00;;;;;;;2.73;1.80;;;;;;;;;;5028131;28;20041;-62
2021/07/26 07:28:27;;;;;;;3.97;1.83;;;;;;;;;;5027540;28;20037;-62
2021/07/26 07:30:54;;;;;;;4.73;2.10;;;;;;;;;;5037882;28;20025;-62
2021/07/26 07:33:20;;;;;;;4.43;1.97;;;;;;;;;;5049356;28;20132;-62
2021/07/26 07:35:47;;;;;;;4.53;2.00;;;;;;;;;;5053106;28;20032;-62
2021/07/26 07:38:14;;;;;;;2.53;1.50;;;;;;;;;;5052696;28;20025;-62
2021/07/26 07:40:41;;;;;;;5.93;2.47;;;;;;;;;;5044743;28;20032;-62
2021/07/26 07:43:07;;;;;;;4.67;1.93;;;;;;;;;;5032979;28;20029;-62
2021/07/26 07:45:34;;;;;;;3.83;1.90;;;;;;;;;;5039130;28;20140;-63
2021/07/26 07:48:01;;;;;;;4.63;2.13;;;;;;;;;;5047709;28;20025;-62
2021/07/26 07:50:28;;;;;;;3.87;2.67;;;;;;;;;;5023772;28;20379;-62
2021/07/26 07:52:57;;;;;;;5.37;2.23;;;;;;;;;;5027631;28;20030;-62
2021/07/26 07:55:24;;;;;;;8.30;2.20;;;;;;;;;;5028896;28;20100;-62
2021/07/26 07:57:52;;;;;;;7.07;2.27;;;;;;;;;;5032707;28;20052;-63
2021/07/26 08:00:20;;;;;;;4.53;1.80;;;;;;;;;;5036556;28;20490;-62
2021/07/26 08:02:47;;;;;;;5.40;2.10;;;;;;;;;;5047709;28;20134;-62
2021/07/26 08:05:15;;;;;;;10.07;2.40;;;;;;;;;;5032525;28;20033;-62
2021/07/26 08:07:42;;;;;;;5.43;2.47;;;;;;;;;;5042732;28;20033;-62
2021/07/26 08:10:09;;;;;;;6.70;1.90;;;;;;;;;;5030126;28;20112;-62
2021/07/26 08:12:36;;;;;;;5.57;2.30;;;;;;;;;;5027520;28;20022;-62
2021/07/26 08:15:03;;;;;;;4.17;1.73;;;;;;;;;;5030036;28;20043;-62
2021/07/26 08:17:30;;;;;;;9.10;2.63;;;;;;;;;;5037194;28;20088;-62
2021/07/26 08:19:57;;;;;;;5.47;2.50;;;;;;;;;;5031589;28;20032;-62
2021/07/26 08:22:23;;;;;;;4.97;2.40;;;;;;;;;;5032538;28;20078;-62
2021/07/26 08:24:50;;;;;;;7.13;2.80;;;;;;;;;;5038122;28;20119;-62
2021/07/26 08:27:17;;;;;;;4.47;2.30;;;;;;;;;;5040992;28;20028;-62
2021/07/26 08:29:44;;;;;;;5.93;2.63;;;;;;;;;;5051220;28;20017;-62
2021/07/26 08:32:10;;;;;;;3.47;1.93;;;;;;;;;;5046406;28;20019;-63
2021/07/26 08:34:37;;;;;;;5.70;2.50;;;;;;;;;;5047038;28;20025;-62
2021/07/26 08:37:04;;;;;;;4.17;1.90;;;;;;;;;;5040193;28;20103;-62
2021/07/26 08:39:31;;;;;;;3.93;2.10;;;;;;;;;;5027172;28;20022;-62
2021/07/26 08:41:58;;;;;;;5.30;2.23;;;;;;;;;;5047380;28;20094;-62
2021/07/26 08:44:24;;;;;;;4.93;1.97;;;;;;;;;;5052168;28;20029;-63
2021/07/26 08:46:53;;;;;;;4.97;2.00;;;;;;;;;;5047593;28;20372;-62
2021/07/26 08:49:21;;;;;;;3.40;1.70;;;;;;;;;;5031632;28;20353;-62
2021/07/26 08:51:48;;;;;;;6.27;2.10;;;;;;;;;;5032578;28;20387;-62
2021/07/26 08:54:16;;;;;;;2.90;1.67;;;;;;;;;;5026962;28;20421;-62
2021/07/26 08:56:43;;;;;;;8.93;1.87;;;;;;;;;;5032045;28;20021;-62
2021/07/26 08:59:10;;;;;;;5.87;2.40;;;;;;;;;;5039871;28;20103;-62
2021/07/26 09:01:38;;;;;;;3.57;2.07;;;;;;;;;;5026751;28;20056;-61
2021/07/26 09:04:05;;;;;;;4.17;2.10;;;;;;;;;;5031744;28;20025;-62
2021/07/26 09:06:32;;;;;;;5.70;2.10;;;;;;;;;;5031974;28;20029;-62
2021/07/26 09:08:58;;;;;;;3.47;2.33;;;;;;;;;;5031626;28;20115;-62
2021/07/26 09:11:26;;;;;;;6.90;2.20;;;;;;;;;;5031980;28;20030;-62
2021/07/26 09:13:53;;;;;;;6.37;2.30;;;;;;;;;;5035251;28;20112;-61
2021/07/26 09:16:25;;;;;;;8.40;2.80;;;;;;;;;;5026582;28;20057;-62
2021/07/26 09:19:01;;;;;;;5.20;2.93;;;;;;;;;;5026796;28;20488;-62
2021/07/26 09:21:51;;;;;;;6.63;2.93;;;;;;;;;;5026755;28;20029;-62
2021/07/26 09:24:25;;;;;;;3.73;1.93;;;;;;;;;;5019891;28;20041;-63
2021/07/26 09:26:52;;;;;;;4.80;2.20;;;;;;;;;;5031802;28;20017;-62
2021/07/26 09:29:29;;;;;;;4.90;2.23;;;;;;;;;;5034220;28;20036;-61
2021/07/26 09:31:58;;;;;;;6.20;2.20;;;;;;;;;;5055240;28;20021;-62
2021/07/26 09:34:25;;;;;;;4.43;2.30;;;;;;;;;;5054738;28;20475;-62
2021/07/26 09:36:52;;;;;;;5.37;1.97;;;;;;;;;;5053496;28;20076;-62
2021/07/26 09:39:26;;;;;;;4.93;2.20;;;;;;;;;;5049583;28;20034;-62
2021/07/26 09:41:54;;;;;;;6.13;1.92;;;;;;;;;;5043546;28;20409;-62
2021/07/26 09:44:25;;;;;;;5.17;2.40;;;;;;;;;;5029735;28;20108;-62
2021/07/26 09:46:53;;;;;;;8.43;3.10;;;;;;;;;;5031174;28;20083;-61
2021/07/26 09:49:21;;;;;;;6.03;2.70;;;;;;;;;;5036279;28;20080;-62
2021/07/26 09:52:10;;;;;;;6.13;2.10;;;;;;;;;;5035215;28;20036;-61
2021/07/26 09:54:44;;;;;;;3.33;1.83;;;;;;;;;;5054781;28;20040;-61
2021/07/26 09:57:21;;;;;;;3.87;1.70;;;;;;;;;;5054745;28;20044;-63
2021/07/26 09:59:48;;;;;;;4.27;2.07;;;;;;;;;;5017369;28;20059;-61
2021/07/26 10:02:19;;;;;;;5.13;2.47;;;;;;;;;;5029125;28;20033;-62
2021/07/26 10:04:47;;;;;;;4.57;2.00;;;;;;;;;;5032960;28;20041;-61
2021/07/26 10:07:15;;;;;;;5.50;1.70;;;;;;;;;;5049339;28;20021;-61
2021/07/26 10:09:42;;;;;;;2.20;1.40;;;;;;;;;;5051867;28;20037;-62
2021/07/26 10:12:18;;;;;;;4.03;1.67;;;;;;;;;;5048013;28;20029;-62
2021/07/26 10:14:47;;;;;;;10.10;2.43;;;;;;;;;;5034372;28;20472;-62
2021/07/26 10:17:14;;;;;;;3.93;1.60;;;;;;;;;;5054094;28;20025;-61
2021/07/26 10:19:41;;;;;;;4.00;1.67;;;;;;;;;;5054486;28;20052;-61
2021/07/26 10:22:11;;;;;;;5.67;1.73;;;;;;;;;;5051216;28;20021;-61
2021/07/26 10:24:46;;;;;;;2.70;1.80;;;;;;;;;;5049270;28;20021;-62
2021/07/26 10:27:14;;;;;;;3.83;1.87;;;;;;;;;;5048723;28;20029;-62
2021/07/26 10:29:54;;;;;;;4.17;2.17;;;;;;;;;;5034726;28;20037;-62
2021/07/26 10:32:39;;;;;;;4.90;1.73;;;;;;;;;;5052308;28;20029;-62
2021/07/26 10:35:15;;;;;;;5.97;1.77;;;;;;;;;;5054357;28;20096;-61
2021/07/26 10:37:42;;;;;;;4.17;1.67;;;;;;;;;;5053775;28;20480;-62
2021/07/26 10:40:19;;;;;;;4.87;1.57;;;;;;;;;;5054187;28;20024;-62
2021/07/26 10:42:46;;;;;;;3.77;1.40;;;;;;;;;;5052618;28;20031;-62
2021/07/26 10:45:35;;;;;;;7.63;1.73;;;;;;;;;;5048467;28;20029;-62
2021/07/26 10:48:20;;;;;;;5.07;1.23;;;;;;;;;;5032566;28;20570;-61
2021/07/26 10:50:47;;;;;;;3.03;1.85;;;;;;;;;;5028873;28;20034;-62
2021/07/26 10:53:34;;;;;;;3.67;1.20;;;;;;;;;;5029263;28;20021;-61
2021/07/26 10:56:08;;;;;;;2.20;1.30;;;;;;;;;;5023882;28;20435;-61
2021/07/26 10:58:41;;;;;;;9.80;5.30;;;;;;;;;;5034225;28;20357;-61
2021/07/26 11:01:23;;;;;;;6.20;2.43;;;;;;;;;;5033955;28;20262;-61
2021/07/26 11:03:50;;;;;;;7.77;4.53;;;;;;;;;;5047832;28;20099;-61
2021/07/26 11:06:39;;;;;;;4.60;2.40;;;;;;;;;;5040223;28;20593;-61
2021/07/26 11:09:34;;;;;;;6.53;2.53;;;;;;;;;;5016977;28;20037;-62
2021/07/26 11:12:05;;;;;;;6.90;3.13;;;;;;;;;;5021654;28;20052;-61
2021/07/26 11:14:32;;;;;;;4.77;2.70;;;;;;;;;;5028468;28;20109;-61
2021/07/26 11:17:02;;;;;;;9.70;4.70;;;;;;;;;;5031926;28;20491;-61
2021/07/26 11:19:59;;;;;;;6.37;2.80;;;;;;;;;;5033604;28;20494;-61
2021/07/26 11:22:26;;;;;;;7.97;3.00;;;;;;;;;;5033354;28;20025;-62
2021/07/26 11:24:56;;;;;;;7.37;3.27;;;;;;;;;;5034939;28;20060;-62
2021/07/26 11:27:23;;;;;;;6.63;3.17;;;;;;;;;;5053190;28;20029;-61
2021/07/26 11:29:53;;;;;;;8.97;3.27;;;;;;;;;;5047703;28;20541;-62
2021/07/26 11:32:20;;;;;;;5.10;2.63;;;;;;;;;;5046753;28;20270;-61
2021/07/26 11:34:47;;;;;;;4.60;2.33;;;;;;;;;;5028218;28;20508;-61
2021/07/26 11:37:15;;;;;;;4.50;2.27;;;;;;;;;;5027989;28;20496;-62
2021/07/26 11:39:51;;;;;;;7.77;1.90;;;;;;;;;;5052389;28;20050;-61
2021/07/26 11:42:20;;;;;;;6.97;2.30;;;;;;;;;;5052834;28;20467;-61
2021/07/26 11:44:48;;;;;;;3.80;1.67;;;;;;;;;;5052476;28;20029;-61
2021/07/26 11:47:16;;;;;;;9.17;2.20;;;;;;;;;;5050424;28;20021;-62
2021/07/26 11:49:46;;;;;;;7.53;2.00;;;;;;;;;;5052857;28;20068;-61
2021/07/26 11:52:13;;;;;;;3.70;1.67;;;;;;;;;;5047245;28;20029;-62
2021/07/26 11:54:40;;;;;;;3.93;2.00;;;;;;;;;;5047635;28;20455;-61
2021/07/26 11:57:08;;;;;;;4.10;1.50;;;;;;;;;;5047438;28;20029;-62
2021/07/26 11:59:35;;;;;;;3.73;1.70;;;;;;;;;;5047227;28;20604;-62
2021/07/26 12:02:07;;;;;;;9.03;1.70;;;;;;;;;;5035125;28;20302;-62
2021/07/26 12:04:34;;;;;;;23.80;2.80;;;;;;;;;;5035786;28;20498;-62
2021/07/26 12:07:08;;;;;;;6.53;2.30;;;;;;;;;;5052199;28;20323;-62
2021/07/26 12:09:35;;;;;;;3.27;1.87;;;;;;;;;;5051729;28;20087;-62
2021/07/26 12:12:10;;;;;;;5.33;2.07;;;;;;;;;;5050884;28;20096;-62
2021/07/26 12:14:36;;;;;;;7.40;3.42;;;;;;;;;;5046985;28;20549;-62
2021/07/26 12:17:05;;;;;;;4.13;1.80;;;;;;;;;;5046687;28;20100;-62
2021/07/26 12:19:33;;;;;;;3.33;1.77;;;;;;;;;;5044230;28;20025;-62
2021/07/26 12:22:18;;;;;;;3.77;1.53;;;;;;;;;;5027129;28;20021;-63
2021/07/26 12:24:49;;;;;;;2.70;1.55;;;;;;;;;;5032448;28;20274;-62
2021/07/26 12:27:29;;;;;;;4.80;2.10;;;;;;;;;;5032341;28;20025;-62
2021/07/26 12:29:56;;;;;;;17.83;2.63;;;;;;;;;;5032413;28;20025;-62
2021/07/26 12:32:23;;;;;;;4.30;1.97;;;;;;;;;;5032241;28;20028;-62
2021/07/26 12:35:08;;;;;;;6.60;1.63;;;;;;;;;;5030191;28;20022;-62
2021/07/26 12:37:35;;;;;;;4.32;1.77;;;;;;;;;;5037953;28;20277;-62
2021/07/26 12:40:15;;;;;;;5.03;1.73;;;;;;;;;;5044006;28;20048;-62
2021/07/26 12:42:43;;;;;;;3.03;1.30;;;;;;;;;;5027212;28;20736;-62
2021/07/26 12:45:25;;;;;;;4.93;1.83;;;;;;;;;;5028740;28;20476;-62
2021/07/26 12:47:53;;;;;;;3.10;1.73;;;;;;;;;;5032018;28;20258;-63
2021/07/26 12:50:20;;;;;;;3.50;1.70;;;;;;;;;;5032119;28;20079;-62
2021/07/26 12:52:47;;;;;;;2.17;1.50;;;;;;;;;;5032183;28;20270;-63
2021/07/26 12:55:17;;;;;;;3.27;1.90;;;;;;;;;;5031809;28;20376;-62
2021/07/26 12:57:44;;;;;;;3.33;1.80;;;;;;;;;;5029240;28;20029;-62
2021/07/26 13:00:11;;;;;;;5.17;1.63;;;;;;;;;;5031327;28;20270;-62
2021/07/26 13:02:37;;;;;;;8.03;1.60;;;;;;;;;;5046417;28;20347;-63
2021/07/26 13:05:05;;;;;;;6.20;1.80;;;;;;;;;;5046894;28;20041;-62
2021/07/26 13:07:32;;;;;;;5.23;1.60;;;;;;;;;;5049969;28;20262;-62
2021/07/26 13:09:59;;;;;;;4.23;1.60;;;;;;;;;;5035814;28;20025;-62
2021/07/26 13:12:26;;;;;;;3.77;2.00;;;;;;;;;;5035264;28;20617;-63
2021/07/26 13:14:52;;;;;;;14.70;2.17;;;;;;;;;;5035875;28;20022;-63
2021/07/26 13:17:19;;;;;;;8.60;2.27;;;;;;;;;;5035773;28;20060;-63
2021/07/26 13:19:46;;;;;;;7.93;1.90;;;;;;;;;;5033063;28;20071;-63
2021/07/26 13:22:13;;;;;;;7.73;2.70;;;;;;;;;;5047426;28;20032;-63
2021/07/26 13:24:40;;;;;;;5.73;2.93;;;;;;;;;;5018615;28;20075;-65
2021/07/26 13:27:07;;;;;;;5.43;2.40;;;;;;;;;;5033798;28;20017;-63
2021/07/26 13:29:34;;;;;;;6.30;2.90;;;;;;;;;;5031740;28;20369;-63
2021/07/26 13:32:01;;;;;;;8.50;2.77;;;;;;;;;;5035435;28;20526;-63
2021/07/26 13:34:27;;;;;;;4.50;2.17;;;;;;;;;;5035514;28;20055;-63
2021/07/26 13:36:54;;;;;;;5.27;2.13;;;;;;;;;;5046608;28;20368;-63
2021/07/26 13:39:21;;;;;;;6.47;1.80;;;;;;;;;;5045573;28;20051;-64
2021/07/26 13:41:48;;;;;;;6.23;3.00;;;;;;;;;;5050350;28;20383;-64
2021/07/26 13:44:15;;;;;;;6.63;2.43;;;;;;;;;;5049562;28;20025;-65
2021/07/26 13:46:42;;;;;;;6.13;2.80;;;;;;;;;;5049366;28;20115;-64
2021/07/26 13:49:09;;;;;;;6.60;2.13;;;;;;;;;;5050091;28;20533;-64
2021/07/26 13:51:35;;;;;;;7.17;2.60;;;;;;;;;;5051209;28;20029;-64
2021/07/26 13:54:02;;;;;;;6.07;2.50;;;;;;;;;;5054821;28;20028;-64
2021/07/26 13:56:29;;;;;;;6.17;2.93;;;;;;;;;;5054664;28;20613;-64
2021/07/26 13:58:56;;;;;;;5.67;2.87;;;;;;;;;;5054698;28;20029;-65
2021/07/26 14:01:22;;;;;;;5.03;2.77;;;;;;;;;;5044598;28;20033;-65
2021/07/26 14:03:49;;;;;;;4.73;2.40;;;;;;;;;;5033503;28;20100;-64
2021/07/26 14:06:16;;;;;;;6.50;2.43;;;;;;;;;;5029829;28;20033;-65
2021/07/26 14:08:43;;;;;;;6.13;2.50;;;;;;;;;;5037941;28;20032;-66
2021/07/26 14:11:09;;;;;;;4.57;2.80;;;;;;;;;;5029532;28;20117;-66
2021/07/26 14:13:36;;;;;;;7.60;3.13;;;;;;;;;;5030307;28;20026;-66
2021/07/26 14:16:03;;;;;;;9.33;2.57;;;;;;;;;;5034204;28;20037;-65
2021/07/26 14:18:31;;;;;;;8.10;2.80;;;;;;;;;;5047818;28;20028;-66
2021/07/26 14:20:57;;;;;;;6.67;2.63;;;;;;;;;;5054729;28;20016;-66
2021/07/26 14:23:24;;;;;;;9.57;2.73;;;;;;;;;;5048139;28;20057;-65
2021/07/26 14:25:51;;;;;;;6.23;2.63;;;;;;;;;;5033618;28;20030;-66
2021/07/26 14:28:18;;;;;;;7.23;2.60;;;;;;;;;;5029328;28;20030;-66
2021/07/26 14:30:45;;;;;;;5.87;2.57;;;;;;;;;;5029274;28;20049;-66
2021/07/26 14:33:12;;;;;;;5.10;2.20;;;;;;;;;;5029353;28;20068;-66
2021/07/26 14:35:39;;;;;;;5.33;2.40;;;;;;;;;;5028885;28;20029;-66
2021/07/26 14:38:07;;;;;;;7.57;3.23;;;;;;;;;;5034310;28;20473;-66
2021/07/26 14:40:34;;;;;;;8.70;3.80;;;;;;;;;;5034396;28;20026;-66
2021/07/26 14:43:01;;;;;;;11.03;3.57;;;;;;;;;;5041335;28;20017;-66
2021/07/26 14:45:28;;;;;;;6.40;3.07;;;;;;;;;;5035168;28;20095;-66
2021/07/26 14:47:55;;;;;;;7.47;2.83;;;;;;;;;;5035469;28;20049;-65
2021/07/26 14:50:22;;;;;;;8.60;3.33;;;;;;;;;;5048667;28;20033;-66
2021/07/26 14:52:48;;;;;;;9.47;3.00;;;;;;;;;;5048384;28;20078;-66